sensor_id;sensor_type;location;lat;lon;timestamp;temperature;humidity
81524;DHT22;70954;49.500;10.416;2023-07-09T00:02:18;23.50;43.60
81524;DHT22;70954;49.500;10.416;2023-07-09T00:04:44;23.50;43.40
81524;DHT22;70954;49.500;10.416;2023-07-09T00:09:41;23.40;43.90
81524;DHT22;70954;49.500;10.416;2023-07-09T00:12:14;23.30;43.70
81524;DHT22;70954;49.500;10.416;2023-07-09T00:14:40;23.30;44.00
81524;DHT22;70954;49.500;10.416;2023-07-09T00:17:21;23.30;44.00
81524;DHT22;70954;49.500;10.416;2023-07-09T00:19:48;23.20;44.80
81524;DHT22;70954;49.500;10.416;2023-07-09T00:22:15;23.20;44.20
81524;DHT22;70954;49.500;10.416;2023-07-09T00:24:41;23.20;44.30
81524;DHT22;70954;49.500;10.416;2023-07-09T00:27:09;23.10;44.40
81524;DHT22;70954;49.500;10.416;2023-07-09T00:29:34;23.10;44.60
81524;DHT22;70954;49.500;10.416;2023-07-09T00:31:59;23.00;44.60
81524;DHT22;70954;49.500;10.416;2023-07-09T00:34:25;23.00;44.80
81524;DHT22;70954;49.500;10.416;2023-07-09T00:36:50;23.00;44.90
81524;DHT22;70954;49.500;10.416;2023-07-09T00:39:17;22.90;44.90
81524;DHT22;70954;49.500;10.416;2023-07-09T00:41:43;22.90;45.10
81524;DHT22;70954;49.500;10.416;2023-07-09T00:44:30;22.80;45.10
81524;DHT22;70954;49.500;10.416;2023-07-09T00:49:39;22.80;45.30
81524;DHT22;70954;49.500;10.416;2023-07-09T00:52:19;22.70;45.90
81524;DHT22;70954;49.500;10.416;2023-07-09T00:54:46;22.70;46.10
81524;DHT22;70954;49.500;10.416;2023-07-09T00:57:14;22.60;45.50
81524;DHT22;70954;49.500;10.416;2023-07-09T00:59:41;22.60;45.60
81524;DHT22;70954;49.500;10.416;2023-07-09T01:02:07;22.60;45.70
81524;DHT22;70954;49.500;10.416;2023-07-09T01:04:33;22.50;45.70
81524;DHT22;70954;49.500;10.416;2023-07-09T01:07:00;22.50;45.80
81524;DHT22;70954;49.500;10.416;2023-07-09T01:09:25;22.50;45.90
81524;DHT22;70954;49.500;10.416;2023-07-09T01:11:51;22.40;46.10
81524;DHT22;70954;49.500;10.416;2023-07-09T01:14:19;22.40;46.20
81524;DHT22;70954;49.500;10.416;2023-07-09T01:16:49;22.30;46.30
81524;DHT22;70954;49.500;10.416;2023-07-09T01:19:17;22.30;46.50
81524;DHT22;70954;49.500;10.416;2023-07-09T01:21:46;22.30;46.50
81524;DHT22;70954;49.500;10.416;2023-07-09T01:24:48;22.20;46.60
81524;DHT22;70954;49.500;10.416;2023-07-09T01:27:14;22.20;47.50
81524;DHT22;70954;49.500;10.416;2023-07-09T01:29:42;22.20;46.70
81524;DHT22;70954;49.500;10.416;2023-07-09T01:32:08;22.10;46.80
81524;DHT22;70954;49.500;10.416;2023-07-09T01:34:34;22.10;46.90
81524;DHT22;70954;49.500;10.416;2023-07-09T01:36:59;22.10;46.90
81524;DHT22;70954;49.500;10.416;2023-07-09T01:39:26;22.00;47.10
81524;DHT22;70954;49.500;10.416;2023-07-09T01:41:52;22.00;47.10
81524;DHT22;70954;49.500;10.416;2023-07-09T01:44:18;21.90;47.20
81524;DHT22;70954;49.500;10.416;2023-07-09T01:46:43;21.90;47.30
81524;DHT22;70954;49.500;10.416;2023-07-09T01:49:08;21.90;47.40
81524;DHT22;70954;49.500;10.416;2023-07-09T01:51:34;21.90;47.50
81524;DHT22;70954;49.500;10.416;2023-07-09T01:54:00;21.80;47.60
81524;DHT22;70954;49.500;10.416;2023-07-09T01:56:25;21.70;47.60
81524;DHT22;70954;49.500;10.416;2023-07-09T01:58:51;21.70;47.70
81524;DHT22;70954;49.500;10.416;2023-07-09T02:01:16;21.70;47.70
81524;DHT22;70954;49.500;10.416;2023-07-09T02:03:42;21.70;47.80
81524;DHT22;70954;49.500;10.416;2023-07-09T02:06:07;21.60;47.90
81524;DHT22;70954;49.500;10.416;2023-07-09T02:08:32;21.60;47.90
81524;DHT22;70954;49.500;10.416;2023-07-09T02:10:58;21.50;47.90
81524;DHT22;70954;49.500;10.416;2023-07-09T02:13:23;21.50;47.90
81524;DHT22;70954;49.500;10.416;2023-07-09T02:15:49;21.50;47.90
81524;DHT22;70954;49.500;10.416;2023-07-09T02:18:14;21.50;47.90
81524;DHT22;70954;49.500;10.416;2023-07-09T02:20:40;21.50;48.00
81524;DHT22;70954;49.500;10.416;2023-07-09T02:23:06;21.40;48.00
81524;DHT22;70954;49.500;10.416;2023-07-09T02:25:32;21.40;48.00
81524;DHT22;70954;49.500;10.416;2023-07-09T02:27:58;21.40;48.10
81524;DHT22;70954;49.500;10.416;2023-07-09T02:30:23;21.40;48.10
81524;DHT22;70954;49.500;10.416;2023-07-09T02:32:49;21.30;48.20
81524;DHT22;70954;49.500;10.416;2023-07-09T02:35:14;21.30;48.20
81524;DHT22;70954;49.500;10.416;2023-07-09T02:37:40;21.30;48.20
81524;DHT22;70954;49.500;10.416;2023-07-09T02:40:11;21.20;48.20
81524;DHT22;70954;49.500;10.416;2023-07-09T02:42:36;21.20;48.20
81524;DHT22;70954;49.500;10.416;2023-07-09T02:45:02;21.20;48.20
81524;DHT22;70954;49.500;10.416;2023-07-09T02:47:28;21.10;48.20
81524;DHT22;70954;49.500;10.416;2023-07-09T02:49:53;21.10;48.30
81524;DHT22;70954;49.500;10.416;2023-07-09T02:52:19;21.10;48.30
81524;DHT22;70954;49.500;10.416;2023-07-09T02:54:44;21.10;48.30
81524;DHT22;70954;49.500;10.416;2023-07-09T02:57:09;21.10;48.30
81524;DHT22;70954;49.500;10.416;2023-07-09T02:59:35;21.00;48.30
81524;DHT22;70954;49.500;10.416;2023-07-09T03:02:01;21.00;48.40
81524;DHT22;70954;49.500;10.416;2023-07-09T03:04:27;21.00;48.40
81524;DHT22;70954;49.500;10.416;2023-07-09T03:06:52;21.00;48.50
81524;DHT22;70954;49.500;10.416;2023-07-09T03:09:18;21.00;48.50
81524;DHT22;70954;49.500;10.416;2023-07-09T03:11:44;20.90;48.60
81524;DHT22;70954;49.500;10.416;2023-07-09T03:14:09;20.90;48.70
81524;DHT22;70954;49.500;10.416;2023-07-09T03:16:35;20.90;48.70
81524;DHT22;70954;49.500;10.416;2023-07-09T03:19:01;20.90;48.70
81524;DHT22;70954;49.500;10.416;2023-07-09T03:21:28;20.80;48.70
81524;DHT22;70954;49.500;10.416;2023-07-09T03:23:54;20.80;48.80
81524;DHT22;70954;49.500;10.416;2023-07-09T03:26:20;20.80;48.80
81524;DHT22;70954;49.500;10.416;2023-07-09T03:28:45;20.80;48.80
81524;DHT22;70954;49.500;10.416;2023-07-09T03:31:11;20.80;48.90
81524;DHT22;70954;49.500;10.416;2023-07-09T03:33:37;20.70;49.00
81524;DHT22;70954;49.500;10.416;2023-07-09T03:36:04;20.70;49.10
81524;DHT22;70954;49.500;10.416;2023-07-09T03:38:30;20.70;49.10
81524;DHT22;70954;49.500;10.416;2023-07-09T03:40:56;20.70;49.20
81524;DHT22;70954;49.500;10.416;2023-07-09T03:43:22;20.70;49.40
81524;DHT22;70954;49.500;10.416;2023-07-09T03:45:48;20.70;49.40
81524;DHT22;70954;49.500;10.416;2023-07-09T03:48:16;20.70;49.50
81524;DHT22;70954;49.500;10.416;2023-07-09T03:50:44;20.60;49.50
81524;DHT22;70954;49.500;10.416;2023-07-09T03:53:10;20.60;49.60
81524;DHT22;70954;49.500;10.416;2023-07-09T03:55:35;20.60;49.70
81524;DHT22;70954;49.500;10.416;2023-07-09T03:58:01;20.60;49.80
81524;DHT22;70954;49.500;10.416;2023-07-09T04:00:27;20.60;49.90
81524;DHT22;70954;49.500;10.416;2023-07-09T04:02:52;20.60;50.00
81524;DHT22;70954;49.500;10.416;2023-07-09T04:05:17;20.60;50.00
81524;DHT22;70954;49.500;10.416;2023-07-09T04:07:44;20.60;50.00
81524;DHT22;70954;49.500;10.416;2023-07-09T04:10:09;20.50;50.10
81524;DHT22;70954;49.500;10.416;2023-07-09T04:12:35;20.50;50.10
81524;DHT22;70954;49.500;10.416;2023-07-09T04:15:01;20.50;50.20
81524;DHT22;70954;49.500;10.416;2023-07-09T04:17:26;20.50;50.30
81524;DHT22;70954;49.500;10.416;2023-07-09T04:19:52;20.50;50.40
81524;DHT22;70954;49.500;10.416;2023-07-09T04:22:18;20.50;50.40
81524;DHT22;70954;49.500;10.416;2023-07-09T04:24:44;20.50;50.50
81524;DHT22;70954;49.500;10.416;2023-07-09T04:27:10;20.50;50.50
81524;DHT22;70954;49.500;10.416;2023-07-09T04:29:35;20.50;50.60
81524;DHT22;70954;49.500;10.416;2023-07-09T04:32:12;20.50;50.60
81524;DHT22;70954;49.500;10.416;2023-07-09T04:34:38;20.60;51.00
81524;DHT22;70954;49.500;10.416;2023-07-09T04:37:03;20.60;50.70
81524;DHT22;70954;49.500;10.416;2023-07-09T04:39:29;20.60;50.80
81524;DHT22;70954;49.500;10.416;2023-07-09T04:41:54;20.60;50.90
81524;DHT22;70954;49.500;10.416;2023-07-09T04:44:20;20.60;51.00
81524;DHT22;70954;49.500;10.416;2023-07-09T04:46:45;20.60;51.10
81524;DHT22;70954;49.500;10.416;2023-07-09T04:49:10;20.60;51.20
81524;DHT22;70954;49.500;10.416;2023-07-09T04:51:36;20.70;51.30
81524;DHT22;70954;49.500;10.416;2023-07-09T04:54:01;20.70;51.40
81524;DHT22;70954;49.500;10.416;2023-07-09T04:56:27;20.70;51.50
81524;DHT22;70954;49.500;10.416;2023-07-09T04:58:52;20.80;51.60
81524;DHT22;70954;49.500;10.416;2023-07-09T05:01:18;20.80;51.60
81524;DHT22;70954;49.500;10.416;2023-07-09T05:03:43;20.80;51.60
81524;DHT22;70954;49.500;10.416;2023-07-09T05:06:08;20.90;51.60
81524;DHT22;70954;49.500;10.416;2023-07-09T05:08:34;20.90;51.60
81524;DHT22;70954;49.500;10.416;2023-07-09T05:10:59;20.90;51.60
81524;DHT22;70954;49.500;10.416;2023-07-09T05:13:25;21.00;51.50
81524;DHT22;70954;49.500;10.416;2023-07-09T05:15:51;21.00;51.50
81524;DHT22;70954;49.500;10.416;2023-07-09T05:18:17;21.00;51.60
81524;DHT22;70954;49.500;10.416;2023-07-09T05:20:43;21.10;51.50
81524;DHT22;70954;49.500;10.416;2023-07-09T05:23:09;21.10;51.60
81524;DHT22;70954;49.500;10.416;2023-07-09T05:25:35;21.10;51.60
81524;DHT22;70954;49.500;10.416;2023-07-09T05:28:01;21.20;51.60
81524;DHT22;70954;49.500;10.416;2023-07-09T05:30:26;21.30;51.60
81524;DHT22;70954;49.500;10.416;2023-07-09T05:32:52;21.30;51.50
81524;DHT22;70954;49.500;10.416;2023-07-09T05:35:17;21.40;51.50
81524;DHT22;70954;49.500;10.416;2023-07-09T05:37:43;21.40;51.50
81524;DHT22;70954;49.500;10.416;2023-07-09T05:40:08;21.50;51.50
81524;DHT22;70954;49.500;10.416;2023-07-09T05:42:34;21.50;51.50
81524;DHT22;70954;49.500;10.416;2023-07-09T05:45:00;21.60;51.50
81524;DHT22;70954;49.500;10.416;2023-07-09T05:47:26;21.70;51.40
81524;DHT22;70954;49.500;10.416;2023-07-09T05:49:51;21.70;51.40
81524;DHT22;70954;49.500;10.416;2023-07-09T05:52:18;21.70;51.40
81524;DHT22;70954;49.500;10.416;2023-07-09T05:54:44;21.80;51.40
81524;DHT22;70954;49.500;10.416;2023-07-09T05:57:10;21.90;51.40
81524;DHT22;70954;49.500;10.416;2023-07-09T05:59:36;21.90;51.40
81524;DHT22;70954;49.500;10.416;2023-07-09T06:02:02;22.00;51.40
81524;DHT22;70954;49.500;10.416;2023-07-09T06:04:28;22.10;51.50
81524;DHT22;70954;49.500;10.416;2023-07-09T06:06:53;22.10;51.50
81524;DHT22;70954;49.500;10.416;2023-07-09T06:09:19;22.20;51.40
81524;DHT22;70954;49.500;10.416;2023-07-09T06:11:44;22.20;51.40
81524;DHT22;70954;49.500;10.416;2023-07-09T06:14:10;22.30;51.20
81524;DHT22;70954;49.500;10.416;2023-07-09T06:16:35;22.40;51.00
81524;DHT22;70954;49.500;10.416;2023-07-09T06:19:01;22.50;50.80
81524;DHT22;70954;49.500;10.416;2023-07-09T06:21:26;22.50;50.60
81524;DHT22;70954;49.500;10.416;2023-07-09T06:23:52;22.60;50.50
81524;DHT22;70954;49.500;10.416;2023-07-09T06:26:17;22.70;50.40
81524;DHT22;70954;49.500;10.416;2023-07-09T06:28:42;22.70;50.30
81524;DHT22;70954;49.500;10.416;2023-07-09T06:31:08;22.80;50.20
81524;DHT22;70954;49.500;10.416;2023-07-09T06:33:33;22.90;50.00
81524;DHT22;70954;49.500;10.416;2023-07-09T06:36:00;23.00;49.90
81524;DHT22;70954;49.500;10.416;2023-07-09T06:38:27;23.10;49.80
81524;DHT22;70954;49.500;10.416;2023-07-09T06:40:53;23.20;49.70
81524;DHT22;70954;49.500;10.416;2023-07-09T06:43:19;23.30;49.70
81524;DHT22;70954;49.500;10.416;2023-07-09T06:45:55;23.30;49.60
81524;DHT22;70954;49.500;10.416;2023-07-09T06:48:22;23.50;49.50
81524;DHT22;70954;49.500;10.416;2023-07-09T06:50:48;23.60;49.40
81524;DHT22;70954;49.500;10.416;2023-07-09T06:53:13;23.60;49.30
81524;DHT22;70954;49.500;10.416;2023-07-09T06:55:39;23.80;49.10
81524;DHT22;70954;49.500;10.416;2023-07-09T06:58:05;23.90;49.00
81524;DHT22;70954;49.500;10.416;2023-07-09T07:00:31;24.00;48.80
81524;DHT22;70954;49.500;10.416;2023-07-09T07:02:56;24.20;48.80
81524;DHT22;70954;49.500;10.416;2023-07-09T07:05:21;24.30;48.70
81524;DHT22;70954;49.500;10.416;2023-07-09T07:07:47;24.40;48.60
81524;DHT22;70954;49.500;10.416;2023-07-09T07:10:12;24.60;48.60
81524;DHT22;70954;49.500;10.416;2023-07-09T07:12:46;24.70;48.40
81524;DHT22;70954;49.500;10.416;2023-07-09T07:15:14;24.90;48.10
81524;DHT22;70954;49.500;10.416;2023-07-09T07:17:40;25.00;48.00
81524;DHT22;70954;49.500;10.416;2023-07-09T07:20:07;25.20;47.80
81524;DHT22;70954;49.500;10.416;2023-07-09T07:22:33;25.40;47.60
81524;DHT22;70954;49.500;10.416;2023-07-09T07:24:58;25.50;47.40
81524;DHT22;70954;49.500;10.416;2023-07-09T07:27:23;25.70;47.10
81524;DHT22;70954;49.500;10.416;2023-07-09T07:29:49;25.80;46.80
81524;DHT22;70954;49.500;10.416;2023-07-09T07:32:14;26.00;46.60
81524;DHT22;70954;49.500;10.416;2023-07-09T07:34:40;26.10;46.40
81524;DHT22;70954;49.500;10.416;2023-07-09T07:37:05;26.30;46.10
81524;DHT22;70954;49.500;10.416;2023-07-09T07:39:31;26.50;45.70
81524;DHT22;70954;49.500;10.416;2023-07-09T07:41:56;26.60;45.50
81524;DHT22;70954;49.500;10.416;2023-07-09T07:44:22;26.80;45.50
81524;DHT22;70954;49.500;10.416;2023-07-09T07:46:48;26.90;45.10
81524;DHT22;70954;49.500;10.416;2023-07-09T07:49:13;27.10;44.90
81524;DHT22;70954;49.500;10.416;2023-07-09T07:51:39;27.20;44.60
81524;DHT22;70954;49.500;10.416;2023-07-09T07:54:05;27.40;44.40
81524;DHT22;70954;49.500;10.416;2023-07-09T07:56:30;27.50;44.20
81524;DHT22;70954;49.500;10.416;2023-07-09T07:58:56;27.80;44.00
81524;DHT22;70954;49.500;10.416;2023-07-09T08:01:21;27.90;43.70
81524;DHT22;70954;49.500;10.416;2023-07-09T08:03:47;28.10;43.40
81524;DHT22;70954;49.500;10.416;2023-07-09T08:06:12;28.30;43.20
81524;DHT22;70954;49.500;10.416;2023-07-09T08:08:38;28.50;43.10
81524;DHT22;70954;49.500;10.416;2023-07-09T08:11:05;28.60;42.90
81524;DHT22;70954;49.500;10.416;2023-07-09T08:13:32;28.70;42.60
81524;DHT22;70954;49.500;10.416;2023-07-09T08:15:58;28.90;42.30
81524;DHT22;70954;49.500;10.416;2023-07-09T08:18:23;29.10;42.10
81524;DHT22;70954;49.500;10.416;2023-07-09T08:20:48;29.30;41.70
81524;DHT22;70954;49.500;10.416;2023-07-09T08:23:14;29.40;41.30
81524;DHT22;70954;49.500;10.416;2023-07-09T08:25:40;29.60;41.10
81524;DHT22;70954;49.500;10.416;2023-07-09T08:28:05;29.70;40.70
81524;DHT22;70954;49.500;10.416;2023-07-09T08:30:30;29.90;40.40
81524;DHT22;70954;49.500;10.416;2023-07-09T08:32:56;30.00;40.20
81524;DHT22;70954;49.500;10.416;2023-07-09T08:35:21;30.30;39.90
81524;DHT22;70954;49.500;10.416;2023-07-09T08:37:47;30.30;39.60
81524;DHT22;70954;49.500;10.416;2023-07-09T08:40:15;30.50;39.30
81524;DHT22;70954;49.500;10.416;2023-07-09T08:42:46;30.70;39.00
81524;DHT22;70954;49.500;10.416;2023-07-09T08:50:54;31.10;38.30
81524;DHT22;70954;49.500;10.416;2023-07-09T08:53:25;31.30;37.50
81524;DHT22;70954;49.500;10.416;2023-07-09T08:55:52;31.40;37.60
81524;DHT22;70954;49.500;10.416;2023-07-09T08:58:23;31.60;37.20
81524;DHT22;70954;49.500;10.416;2023-07-09T09:00:58;31.70;36.40
81524;DHT22;70954;49.500;10.416;2023-07-09T09:03:35;31.90;36.00
81524;DHT22;70954;49.500;10.416;2023-07-09T09:06:01;32.00;35.70
81524;DHT22;70954;49.500;10.416;2023-07-09T09:11:16;32.20;35.70
81524;DHT22;70954;49.500;10.416;2023-07-09T09:13:45;32.40;34.90
81524;DHT22;70954;49.500;10.416;2023-07-09T09:16:33;32.50;35.10
81524;DHT22;70954;49.500;10.416;2023-07-09T09:19:00;32.60;33.90
81524;DHT22;70954;49.500;10.416;2023-07-09T09:21:36;32.80;34.40
81524;DHT22;70954;49.500;10.416;2023-07-09T09:24:35;33.00;33.30
81524;DHT22;70954;49.500;10.416;2023-07-09T09:26:59;33.00;33.00
81524;DHT22;70954;49.500;10.416;2023-07-09T09:29:25;33.10;33.70
81524;DHT22;70954;49.500;10.416;2023-07-09T09:31:54;33.30;33.40
81524;DHT22;70954;49.500;10.416;2023-07-09T09:34:22;33.40;33.00
81524;DHT22;70954;49.500;10.416;2023-07-09T09:36:48;33.50;33.00
81524;DHT22;70954;49.500;10.416;2023-07-09T09:39:13;33.60;32.80
81524;DHT22;70954;49.500;10.416;2023-07-09T09:41:39;33.60;32.60
81524;DHT22;70954;49.500;10.416;2023-07-09T09:44:04;33.80;32.40
81524;DHT22;70954;49.500;10.416;2023-07-09T09:46:31;33.90;32.20
81524;DHT22;70954;49.500;10.416;2023-07-09T09:49:02;34.00;32.00
81524;DHT22;70954;49.500;10.416;2023-07-09T09:51:27;34.00;31.50
81524;DHT22;70954;49.500;10.416;2023-07-09T09:54:02;34.10;31.60
81524;DHT22;70954;49.500;10.416;2023-07-09T09:56:36;34.20;30.00
81524;DHT22;70954;49.500;10.416;2023-07-09T09:59:03;34.20;29.80
81524;DHT22;70954;49.500;10.416;2023-07-09T10:01:34;34.20;30.50
81524;DHT22;70954;49.500;10.416;2023-07-09T10:04:01;34.30;30.30
81524;DHT22;70954;49.500;10.416;2023-07-09T10:06:39;34.40;30.70
81524;DHT22;70954;49.500;10.416;2023-07-09T10:11:57;34.40;29.00
81524;DHT22;70954;49.500;10.416;2023-07-09T10:14:40;34.40;29.50
81524;DHT22;70954;49.500;10.416;2023-07-09T10:17:31;34.40;28.90
81524;DHT22;70954;49.500;10.416;2023-07-09T10:20:18;34.40;29.20
81524;DHT22;70954;49.500;10.416;2023-07-09T10:25:34;34.40;29.50
81524;DHT22;70954;49.500;10.416;2023-07-09T10:33:53;34.60;28.80
81524;DHT22;70954;49.500;10.416;2023-07-09T10:39:23;34.60;27.90
81524;DHT22;70954;49.500;10.416;2023-07-09T10:41:51;34.60;28.60
81524;DHT22;70954;49.500;10.416;2023-07-09T10:44:23;34.60;29.00
81524;DHT22;70954;49.500;10.416;2023-07-09T10:46:55;34.70;28.90
81524;DHT22;70954;49.500;10.416;2023-07-09T10:49:27;34.70;28.30
81524;DHT22;70954;49.500;10.416;2023-07-09T10:52:07;34.70;28.40
81524;DHT22;70954;49.500;10.416;2023-07-09T10:54:51;34.70;27.90
81524;DHT22;70954;49.500;10.416;2023-07-09T10:57:29;34.70;28.10
81524;DHT22;70954;49.500;10.416;2023-07-09T10:59:56;34.80;28.00
81524;DHT22;70954;49.500;10.416;2023-07-09T11:02:30;34.80;28.40
81524;DHT22;70954;49.500;10.416;2023-07-09T11:04:58;34.80;28.00
81524;DHT22;70954;49.500;10.416;2023-07-09T11:07:51;34.90;28.20
81524;DHT22;70954;49.500;10.416;2023-07-09T11:10:27;35.00;27.70
81524;DHT22;70954;49.500;10.416;2023-07-09T11:15:58;35.10;27.60
81524;DHT22;70954;49.500;10.416;2023-07-09T11:18:29;35.10;28.20
81524;DHT22;70954;49.500;10.416;2023-07-09T11:21:15;35.20;28.00
81524;DHT22;70954;49.500;10.416;2023-07-09T11:23:46;35.30;27.70
81524;DHT22;70954;49.500;10.416;2023-07-09T11:26:15;35.30;27.70
81524;DHT22;70954;49.500;10.416;2023-07-09T11:28:52;35.40;27.70
81524;DHT22;70954;49.500;10.416;2023-07-09T11:31:24;35.40;27.30
81524;DHT22;70954;49.500;10.416;2023-07-09T11:34:08;35.50;27.10
81524;DHT22;70954;49.500;10.416;2023-07-09T11:39:21;35.60;26.50
81524;DHT22;70954;49.500;10.416;2023-07-09T11:41:46;35.60;27.10
81524;DHT22;70954;49.500;10.416;2023-07-09T11:46:49;35.70;26.80
81524;DHT22;70954;49.500;10.416;2023-07-09T11:49:15;35.80;26.40
81524;DHT22;70954;49.500;10.416;2023-07-09T11:51:45;35.80;26.60
81524;DHT22;70954;49.500;10.416;2023-07-09T11:54:12;35.80;26.50
81524;DHT22;70954;49.500;10.416;2023-07-09T11:56:37;35.90;26.70
81524;DHT22;70954;49.500;10.416;2023-07-09T11:59:03;35.90;26.70
81524;DHT22;70954;49.500;10.416;2023-07-09T12:01:36;36.00;26.60
81524;DHT22;70954;49.500;10.416;2023-07-09T12:04:03;36.00;26.40
81524;DHT22;70954;49.500;10.416;2023-07-09T12:06:32;36.10;26.50
81524;DHT22;70954;49.500;10.416;2023-07-09T12:08:58;36.10;26.40
81524;DHT22;70954;49.500;10.416;2023-07-09T12:11:34;36.20;26.20
81524;DHT22;70954;49.500;10.416;2023-07-09T12:14:13;36.30;25.80
81524;DHT22;70954;49.500;10.416;2023-07-09T12:16:43;36.30;25.70
81524;DHT22;70954;49.500;10.416;2023-07-09T12:19:11;36.40;25.00
81524;DHT22;70954;49.500;10.416;2023-07-09T12:21:39;36.40;25.50
81524;DHT22;70954;49.500;10.416;2023-07-09T12:24:20;36.40;25.60
81524;DHT22;70954;49.500;10.416;2023-07-09T12:26:57;36.40;24.30
81524;DHT22;70954;49.500;10.416;2023-07-09T12:29:27;36.40;25.00
81524;DHT22;70954;49.500;10.416;2023-07-09T12:31:53;36.40;25.00
81524;DHT22;70954;49.500;10.416;2023-07-09T12:34:21;36.40;25.20
81524;DHT22;70954;49.500;10.416;2023-07-09T12:36:49;36.40;25.20
81524;DHT22;70954;49.500;10.416;2023-07-09T12:39:18;36.40;25.20
81524;DHT22;70954;49.500;10.416;2023-07-09T12:41:45;36.50;25.10
81524;DHT22;70954;49.500;10.416;2023-07-09T12:44:21;36.50;25.00
81524;DHT22;70954;49.500;10.416;2023-07-09T12:46:49;36.50;24.40
81524;DHT22;70954;49.500;10.416;2023-07-09T12:49:38;36.50;24.60
81524;DHT22;70954;49.500;10.416;2023-07-09T12:52:14;36.50;24.00
81524;DHT22;70954;49.500;10.416;2023-07-09T12:54:41;36.50;24.10
81524;DHT22;70954;49.500;10.416;2023-07-09T12:57:14;36.50;24.50
81524;DHT22;70954;49.500;10.416;2023-07-09T12:59:41;36.50;24.30
81524;DHT22;70954;49.500;10.416;2023-07-09T13:02:16;36.50;24.70
81524;DHT22;70954;49.500;10.416;2023-07-09T13:04:42;36.50;24.70
81524;DHT22;70954;49.500;10.416;2023-07-09T13:07:27;36.50;24.70
81524;DHT22;70954;49.500;10.416;2023-07-09T13:09:55;36.50;24.40
81524;DHT22;70954;49.500;10.416;2023-07-09T13:12:29;36.50;24.80
81524;DHT22;70954;49.500;10.416;2023-07-09T13:14:55;36.50;24.60
81524;DHT22;70954;49.500;10.416;2023-07-09T13:17:21;36.50;24.70
81524;DHT22;70954;49.500;10.416;2023-07-09T13:19:47;36.60;24.60
81524;DHT22;70954;49.500;10.416;2023-07-09T13:22:14;36.60;24.60
81524;DHT22;70954;49.500;10.416;2023-07-09T13:24:41;36.70;24.40
81524;DHT22;70954;49.500;10.416;2023-07-09T13:27:11;36.70;24.50
81524;DHT22;70954;49.500;10.416;2023-07-09T13:29:37;36.70;24.30
81524;DHT22;70954;49.500;10.416;2023-07-09T13:32:02;36.70;24.30
81524;DHT22;70954;49.500;10.416;2023-07-09T13:34:30;36.70;24.20
81524;DHT22;70954;49.500;10.416;2023-07-09T13:36:55;36.90;24.10
81524;DHT22;70954;49.500;10.416;2023-07-09T13:39:21;36.90;24.00
81524;DHT22;70954;49.500;10.416;2023-07-09T13:41:49;36.90;23.90
81524;DHT22;70954;49.500;10.416;2023-07-09T13:44:21;36.90;23.90
81524;DHT22;70954;49.500;10.416;2023-07-09T13:46:47;37.00;23.80
81524;DHT22;70954;49.500;10.416;2023-07-09T13:49:16;37.00;23.90
81524;DHT22;70954;49.500;10.416;2023-07-09T13:51:42;37.10;23.80
81524;DHT22;70954;49.500;10.416;2023-07-09T13:56:44;37.10;23.70
81524;DHT22;70954;49.500;10.416;2023-07-09T13:59:16;37.10;23.80
81524;DHT22;70954;49.500;10.416;2023-07-09T14:01:42;37.20;23.60
81524;DHT22;70954;49.500;10.416;2023-07-09T14:04:10;37.20;23.80
81524;DHT22;70954;49.500;10.416;2023-07-09T14:06:36;37.20;23.70
81524;DHT22;70954;49.500;10.416;2023-07-09T14:09:02;37.30;23.60
81524;DHT22;70954;49.500;10.416;2023-07-09T14:11:27;37.30;23.50
81524;DHT22;70954;49.500;10.416;2023-07-09T14:13:53;37.30;23.40
81524;DHT22;70954;49.500;10.416;2023-07-09T14:16:18;37.30;23.40
81524;DHT22;70954;49.500;10.416;2023-07-09T14:18:44;37.40;23.20
81524;DHT22;70954;49.500;10.416;2023-07-09T14:21:20;37.40;23.20
81524;DHT22;70954;49.500;10.416;2023-07-09T14:23:47;37.50;23.00
81524;DHT22;70954;49.500;10.416;2023-07-09T14:26:12;37.50;23.30
81524;DHT22;70954;49.500;10.416;2023-07-09T14:28:38;37.50;23.20
81524;DHT22;70954;49.500;10.416;2023-07-09T14:31:04;37.50;23.20
81524;DHT22;70954;49.500;10.416;2023-07-09T14:33:33;37.50;23.30
81524;DHT22;70954;49.500;10.416;2023-07-09T14:35:59;37.50;23.30
81524;DHT22;70954;49.500;10.416;2023-07-09T14:38:25;37.50;23.40
81524;DHT22;70954;49.500;10.416;2023-07-09T14:40:52;37.50;23.40
81524;DHT22;70954;49.500;10.416;2023-07-09T14:43:19;37.60;23.30
81524;DHT22;70954;49.500;10.416;2023-07-09T14:45:44;37.70;23.30
81524;DHT22;70954;49.500;10.416;2023-07-09T14:48:14;37.70;23.30
81524;DHT22;70954;49.500;10.416;2023-07-09T14:50:41;37.70;23.40
81524;DHT22;70954;49.500;10.416;2023-07-09T14:53:24;37.80;23.40
81524;DHT22;70954;49.500;10.416;2023-07-09T14:55:52;37.80;23.10
81524;DHT22;70954;49.500;10.416;2023-07-09T14:58:20;37.80;23.30
81524;DHT22;70954;49.500;10.416;2023-07-09T15:00:46;37.90;23.30
81524;DHT22;70954;49.500;10.416;2023-07-09T15:03:18;37.90;23.20
81524;DHT22;70954;49.500;10.416;2023-07-09T15:05:44;37.90;22.60
81524;DHT22;70954;49.500;10.416;2023-07-09T15:08:14;38.00;22.90
81524;DHT22;70954;49.500;10.416;2023-07-09T15:10:40;38.00;22.80
81524;DHT22;70954;49.500;10.416;2023-07-09T15:13:17;38.00;23.00
81524;DHT22;70954;49.500;10.416;2023-07-09T15:15:43;38.10;22.70
81524;DHT22;70954;49.500;10.416;2023-07-09T15:18:14;38.10;22.90
81524;DHT22;70954;49.500;10.416;2023-07-09T15:20:43;38.10;22.90
81524;DHT22;70954;49.500;10.416;2023-07-09T15:23:10;38.10;23.00
81524;DHT22;70954;49.500;10.416;2023-07-09T15:25:36;38.20;22.90
81524;DHT22;70954;49.500;10.416;2023-07-09T15:28:01;38.20;22.80
81524;DHT22;70954;49.500;10.416;2023-07-09T15:30:29;38.20;22.90
81524;DHT22;70954;49.500;10.416;2023-07-09T15:32:57;38.20;22.70
81524;DHT22;70954;49.500;10.416;2023-07-09T15:35:23;38.20;22.70
81524;DHT22;70954;49.500;10.416;2023-07-09T15:37:49;38.20;22.70
81524;DHT22;70954;49.500;10.416;2023-07-09T15:40:21;38.20;22.80
81524;DHT22;70954;49.500;10.416;2023-07-09T15:42:48;38.20;22.70
81524;DHT22;70954;49.500;10.416;2023-07-09T15:45:15;38.20;22.60
81524;DHT22;70954;49.500;10.416;2023-07-09T15:47:41;38.20;22.30
81524;DHT22;70954;49.500;10.416;2023-07-09T15:50:16;38.20;22.60
81524;DHT22;70954;49.500;10.416;2023-07-09T15:52:42;38.20;22.30
81524;DHT22;70954;49.500;10.416;2023-07-09T15:55:14;38.20;22.60
81524;DHT22;70954;49.500;10.416;2023-07-09T15:57:39;38.20;22.30
81524;DHT22;70954;49.500;10.416;2023-07-09T16:02:41;38.20;22.10